Time;durP1;ratioP1;P1;durP2;ratioP2;P2;SDS_P1;SDS_P2;PMS_P1;PMS_P2;Temp;Humidity;BMP_temperature;BMP_pressure;BME280_temperature;BME280_humidity;BME280_pressure;Samples;Min_cycle;Max_cycle;Signal;HPM_P1;HPM_P2
2022/11/06 00:01:05;;;;;;;41.47;32.27;;;;;;;13.87;100.00;-14633.50;5072371;28;20200;-63
2022/11/06 00:03:33;;;;;;;46.90;33.87;;;;;;;13.78;100.00;-16230.13;5072441;28;20723;-67
2022/11/06 00:08:45;;;;;;;52.57;39.27;;;;;;;13.73;100.00;-18147.94;5072384;28;20250;-67
2022/11/06 00:11:17;;;;;;;51.17;36.83;;;;;;;13.69;100.00;-18146.97;5072323;28;20280;-67
2022/11/06 00:13:46;;;;;;;47.23;35.97;;;;;;;13.70;100.00;-18147.09;5072091;28;20205;-64
2022/11/06 00:16:14;;;;;;;45.57;35.77;;;;;;;13.42;100.00;-18140.38;5071880;28;20282;-65
2022/11/06 00:18:42;;;;;;;50.23;37.00;;;;;;;13.78;100.00;-18149.03;5071966;28;20196;-64
2022/11/06 00:21:11;;;;;;;49.17;36.53;;;;;;;13.76;100.00;-18148.53;5072383;28;20188;-65
2022/11/06 00:23:38;;;;;;;47.77;37.33;;;;;;;13.98;100.00;-18153.72;5072081;28;20204;-65
2022/11/06 00:26:07;;;;;;;47.47;35.87;;;;;;;13.97;100.00;-18153.59;5071822;28;20188;-66
2022/11/06 00:28:36;;;;;;;53.80;35.37;;;;;;;13.92;100.00;-18152.41;5071687;28;20304;-64
2022/11/06 00:31:04;;;;;;;47.27;35.60;;;;;;;14.14;100.00;-18157.56;5071901;28;20610;-67
2022/11/06 00:33:32;;;;;;;54.87;36.90;;;;;;;14.24;100.00;-18159.84;5071786;28;20184;-64
2022/11/06 00:35:59;;;;;;;48.00;35.50;;;;;;;14.10;100.00;-18156.72;5071666;28;20191;-63
2022/11/06 00:38:26;;;;;;;74.17;46.13;;;;;;;13.99;100.00;-18153.97;5071769;28;20189;-64
2022/11/06 00:40:53;;;;;;;62.40;42.77;;;;;;;14.08;100.00;-18156.25;5072070;28;20187;-63
2022/11/06 00:43:21;;;;;;;71.60;47.07;;;;;;;13.97;100.00;-18153.59;5071855;28;20185;-67
2022/11/06 00:45:51;;;;;;;67.70;45.97;;;;;;;13.98;100.00;-18153.84;5072295;28;20200;-65
2022/11/06 00:48:18;;;;;;;72.40;46.17;;;;;;;13.81;100.00;-18149.75;5072209;28;20189;-64
2022/11/06 00:50:45;;;;;;;70.40;45.77;;;;;;;13.66;100.00;-18146.16;5053898;28;20203;-65
2022/11/06 00:53:12;;;;;;;71.00;45.97;;;;;;;13.64;100.00;-18145.78;5071991;28;20185;-66
2022/11/06 00:55:39;;;;;;;68.77;45.97;;;;;;;13.54;100.00;-18143.38;5071391;28;20276;-66
2022/11/06 00:58:06;;;;;;;63.37;43.93;;;;;;;13.63;100.00;-18145.53;5071456;28;20228;-64
2022/11/06 01:00:34;;;;;;;62.60;42.97;;;;;;;13.50;100.00;-18142.28;5071547;28;20189;-66
2022/11/06 01:03:02;;;;;;;63.90;41.97;;;;;;;13.32;100.00;-18137.97;5071236;28;20193;-64
2022/11/06 01:05:30;;;;;;;63.70;38.40;;;;;;;12.94;100.00;-18129.03;5071437;28;20193;-66
2022/11/06 01:07:57;;;;;;;57.07;38.60;;;;;;;12.97;100.00;-18129.78;5071727;28;20201;-64
2022/11/06 01:10:23;;;;;;;56.40;39.03;;;;;;;13.15;100.00;-18134.09;5053808;28;20608;-64
2022/11/06 01:12:50;;;;;;;62.77;39.97;;;;;;;12.99;100.00;-18130.25;5071568;28;20528;-65
2022/11/06 01:15:18;;;;;;;73.90;46.57;;;;;;;13.06;100.00;-18131.94;5071729;28;20188;-68
2022/11/06 01:17:45;;;;;;;57.63;40.50;;;;;;;13.20;100.00;-18135.31;5071250;28;20687;-66
2022/11/06 01:20:14;;;;;;;55.97;39.80;;;;;;;13.38;100.00;-18139.41;5071561;28;20204;-64
2022/11/06 01:22:41;;;;;;;55.30;37.20;;;;;;;13.12;100.00;-18131.50;5071648;28;20188;-67
2022/11/06 01:25:09;;;;;;;49.83;37.43;;;;;;;13.13;100.00;-18131.75;5071485;28;20208;-65
2022/11/06 01:27:36;;;;;;;55.50;36.03;;;;;;;13.23;100.00;-18136.03;5072815;28;20582;-65
2022/11/06 01:30:05;;;;;;;50.07;35.17;;;;;;;12.86;100.00;-18127.13;5075227;28;20192;-66
2022/11/06 01:32:32;;;;;;;61.83;37.07;;;;;;;12.95;100.00;-18129.16;5074767;28;20320;-64
2022/11/06 01:34:59;;;;;;;74.07;35.47;;;;;;;12.89;100.00;-18127.72;5074697;28;20220;-64
2022/11/06 01:37:27;;;;;;;54.23;34.47;;;;;;;12.77;100.00;-18124.94;5075285;28;20208;-66
2022/11/06 01:39:54;;;;;;;55.63;33.70;;;;;;;12.60;100.00;-18120.84;5074719;28;20272;-64
2022/11/06 01:42:21;;;;;;;48.87;34.50;;;;;;;12.55;100.00;-18119.66;5074785;28;20298;-64
2022/11/06 01:45:25;;;;;;;50.27;33.33;;;;;;;12.52;100.00;-18119.03;5074739;28;20192;-64
2022/11/06 01:47:53;;;;;;;51.93;35.20;;;;;;;12.59;100.00;-18120.72;5075495;28;20222;-70
2022/11/06 01:50:20;;;;;;;48.23;32.97;;;;;;;12.67;100.00;-18122.53;5074720;28;20211;-63
2022/11/06 01:52:51;;;;;;;59.70;34.60;;;;;;;12.48;100.00;-18118.06;5074429;28;20196;-66
2022/11/06 01:55:24;;;;;;;52.77;34.43;;;;;;;12.41;100.00;-18116.28;5074563;28;20279;-66
2022/11/06 01:57:52;;;;;;;49.83;32.77;;;;;;;12.35;100.00;-18114.94;5074467;28;20278;-66
2022/11/06 02:00:20;;;;;;;50.13;32.23;;;;;;;12.18;100.00;-18110.97;5074512;28;20260;-66
2022/11/06 02:02:48;;;;;;;41.33;30.83;;;;;;;11.87;100.00;-18103.50;5074422;28;20642;-64
2022/11/06 02:05:15;;;;;;;58.70;35.23;;;;;;;12.11;100.00;-18109.28;5074105;28;20196;-67
2022/11/06 02:07:43;;;;;;;44.80;31.23;;;;;;;12.26;100.00;-18112.91;5074452;28;20212;-64
2022/11/06 02:10:13;;;;;;;50.13;33.57;;;;;;;12.32;100.00;-18114.22;5074501;28;20700;-66
2022/11/06 02:12:48;;;;;;;62.53;33.73;;;;;;;12.22;100.00;-18111.94;5074190;28;20189;-64
2022/11/06 02:15:23;;;;;;;59.23;33.60;;;;;;;12.44;100.00;-18117.00;5074664;28;20181;-66
2022/11/06 02:18:12;;;;;;;64.80;38.83;;;;;;;12.67;100.00;-18122.53;5074021;28;20245;-67
2022/11/06 02:20:49;;;;;;;88.27;52.30;;;;;;;12.65;100.00;-18122.06;5074298;28;20254;-64
2022/11/06 02:23:38;;;;;;;64.67;34.30;;;;;;;12.59;100.00;-18120.63;5074337;28;20198;-67
2022/11/06 02:26:23;;;;;;;51.30;35.77;;;;;;;12.54;100.00;-18119.53;5074214;28;20555;-66
2022/11/06 02:28:56;;;;;;;60.30;37.97;;;;;;;12.56;100.00;-18120.00;5074276;28;20555;-66
2022/11/06 02:31:30;;;;;;;89.77;51.90;;;;;;;12.66;100.00;-18122.28;5073717;28;20232;-67
2022/11/06 02:34:02;;;;;;;87.10;54.40;;;;;;;12.55;100.00;-18119.78;5074038;28;20204;-64
2022/11/06 02:36:34;;;;;;;101.03;57.07;;;;;;;12.95;100.00;-18129.16;5074099;28;20628;-65
2022/11/06 02:39:05;;;;;;;66.70;42.40;;;;;;;12.93;100.00;-18128.81;5073722;28;20584;-63
2022/11/06 02:41:35;;;;;;;68.83;36.63;;;;;;;13.01;100.00;-18130.72;5074063;28;20675;-64
2022/11/06 02:44:08;;;;;;;53.93;33.23;;;;;;;12.79;100.00;-18123.69;5073515;28;20189;-64
2022/11/06 02:46:41;;;;;;;56.43;35.33;;;;;;;12.76;100.00;-17803.94;5073581;28;20210;-66
2022/11/06 02:49:12;;;;;;;44.07;33.10;;;;;;;12.36;100.00;-18113.44;5073572;28;20263;-65
2022/11/06 02:51:44;;;;;;;54.60;33.13;;;;;;;12.44;100.00;-18117.00;5073683;28;20204;-65
2022/11/06 02:54:14;;;;;;;52.37;30.67;;;;;;;12.33;100.00;-18114.47;5073410;28;20191;-66
2022/11/06 02:56:45;;;;;;;56.50;39.30;;;;;;;12.56;100.00;-18119.88;5073723;28;20200;-65
2022/11/06 02:59:19;;;;;;;58.27;36.13;;;;;;;12.43;100.00;-18116.88;5073669;28;20185;-67
2022/11/06 03:01:51;;;;;;;68.63;42.33;;;;;;;12.52;100.00;-18118.94;5073502;28;20360;-67
2022/11/06 03:04:22;;;;;;;64.23;38.37;;;;;;;12.37;100.00;-18115.44;5073491;28;20287;-68
2022/11/06 03:06:54;;;;;;;70.23;37.90;;;;;;;12.54;100.00;-18119.41;5073599;28;20644;-67
2022/11/06 03:09:28;;;;;;;53.43;36.33;;;;;;;12.51;100.00;-18118.69;5073204;28;20254;-67
2022/11/06 03:12:02;;;;;;;64.97;35.70;;;;;;;12.56;100.00;-18119.88;5073528;28;20185;-64
2022/11/06 03:14:36;;;;;;;42.17;29.57;;;;;;;12.64;100.00;-18121.81;5072920;28;20195;-63
2022/11/06 03:17:12;;;;;;;33.17;25.83;;;;;;;12.90;100.00;-18127.97;5072746;28;20192;-64
2022/11/06 03:19:47;;;;;;;32.00;24.67;;;;;;;13.15;100.00;-18134.09;5073003;28;20204;-66
2022/11/06 03:22:21;;;;;;;38.17;27.87;;;;;;;13.49;100.00;-18142.06;5073199;28;20204;-64
2022/11/06 03:24:56;;;;;;;57.20;36.10;;;;;;;13.37;100.00;-18139.16;5073158;28;20646;-66
2022/11/06 03:27:30;;;;;;;42.23;27.17;;;;;;;13.48;100.00;-18141.94;5072735;28;20204;-66
2022/11/06 03:30:02;;;;;;;37.13;28.07;;;;;;;13.57;100.00;-18142.22;5073016;28;20197;-67
2022/11/06 03:32:39;;;;;;;41.80;29.00;;;;;;;13.68;100.00;-18146.75;5072556;28;20233;-66
2022/11/06 03:35:13;;;;;;;38.87;28.03;;;;;;;13.76;100.00;-18148.44;5072822;28;20219;-64
2022/11/06 03:37:47;;;;;;;37.43;28.37;;;;;;;13.77;100.00;-18148.78;5072545;28;20209;-64
2022/11/06 03:40:18;;;;;;;39.73;27.33;;;;;;;13.85;100.00;-18150.72;5072874;28;20195;-68
2022/11/06 03:42:48;;;;;;;32.47;25.20;;;;;;;13.57;100.00;-18144.09;5072974;28;20551;-66
2022/11/06 03:45:20;;;;;;;39.37;24.90;;;;;;;13.62;100.00;-18145.19;5072488;28;20208;-66
2022/11/06 03:47:53;;;;;;;36.70;23.67;;;;;;;13.62;100.00;-18145.19;5072951;28;20205;-64
2022/11/06 03:50:26;;;;;;;46.83;31.73;;;;;;;13.71;100.00;-18147.34;5071876;28;20239;-63
2022/11/06 03:52:57;;;;;;;34.73;25.63;;;;;;;13.70;100.00;-18147.09;5072643;28;20185;-67
2022/11/06 03:55:28;;;;;;;49.20;34.27;;;;;;;13.82;100.00;-18149.88;5073168;28;20270;-65
2022/11/06 03:58:00;;;;;;;41.83;24.27;;;;;;;13.84;100.00;-18150.34;5072308;28;20216;-66
2022/11/06 04:00:28;;;;;;;36.83;23.97;;;;;;;13.76;100.00;-18148.53;5072600;28;20266;-63
2022/11/06 04:03:04;;;;;;;32.50;24.53;;;;;;;13.91;100.00;-18152.16;5072776;28;20195;-69
2022/11/06 04:05:36;;;;;;;35.47;25.43;;;;;;;13.86;100.00;-18150.97;5072581;28;20189;-66
2022/11/06 04:14:00;;;;;;;36.17;24.87;;;;;;;13.71;100.00;-18147.47;5072465;28;20180;-63
2022/11/06 04:16:33;;;;;;;38.63;24.87;;;;;;;13.80;100.00;-18149.38;5072338;28;20220;-67
2022/11/06 04:19:00;;;;;;;37.00;25.43;;;;;;;13.83;100.00;-18150.22;5072421;28;20682;-64
2022/11/06 04:21:43;;;;;;;48.37;28.00;;;;;;;13.71;100.00;-18147.34;5073044;28;20189;-68
2022/11/06 04:27:24;;;;;;;49.77;32.93;;;;;;;13.35;100.00;-18138.81;5071959;28;20263;-64
2022/11/06 04:30:06;;;;;;;45.97;32.70;;;;;;;13.36;100.00;-18138.91;5072104;28;20207;-65
2022/11/06 04:32:54;;;;;;;45.37;32.60;;;;;;;13.09;100.00;-18132.66;5071824;28;20690;-65
2022/11/06 04:35:29;;;;;;;54.23;31.67;;;;;;;12.67;100.00;-18122.66;5071873;28;20189;-66
2022/11/06 04:38:04;;;;;;;43.27;30.83;;;;;;;12.74;100.00;-18124.22;5071898;28;20204;-66
2022/11/06 04:40:50;;;;;;;46.27;32.73;;;;;;;12.69;100.00;-18123.13;5071552;28;20223;-65
2022/11/06 04:43:27;;;;;;;48.17;32.90;;;;;;;12.62;100.00;-18121.44;5072109;28;20192;-65
2022/11/06 04:45:58;;;;;;;51.10;32.27;;;;;;;12.77;100.00;-18125.06;5071432;28;20226;-67
2022/11/06 04:48:28;;;;;;;48.33;31.37;;;;;;;12.82;100.00;-18126.16;5071927;28;20208;-65
2022/11/06 04:51:00;;;;;;;50.57;32.70;;;;;;;12.67;100.00;-18122.66;5072080;28;20185;-66
2022/11/06 04:53:31;;;;;;;45.87;32.20;;;;;;;12.78;100.00;-18125.19;5071578;28;20215;-67
2022/11/06 04:56:06;;;;;;;43.23;31.50;;;;;;;12.91;100.00;-18128.19;5071654;28;20205;-66
2022/11/06 04:58:33;;;;;;;52.90;33.10;;;;;;;12.99;100.00;-18130.25;5071666;28;20227;-64
2022/11/06 05:01:01;;;;;;;49.00;33.13;;;;;;;12.97;100.00;-18129.66;5072038;28;20189;-66
2022/11/06 05:03:29;;;;;;;49.50;32.90;;;;;;;13.20;100.00;-18135.31;5076114;28;20203;-64
2022/11/06 05:05:57;;;;;;;51.77;33.80;;;;;;;13.18;100.00;-18134.81;5075827;28;20203;-67
2022/11/06 05:08:24;;;;;;;53.03;33.37;;;;;;;13.31;100.00;-18137.84;5075453;28;20206;-63
2022/11/06 05:10:50;;;;;;;61.77;35.00;;;;;;;13.43;100.00;-18140.72;5075774;28;20278;-65
2022/11/06 05:13:18;;;;;;;48.57;32.47;;;;;;;13.47;100.00;-18141.69;5075482;28;20185;-66
2022/11/06 05:15:46;;;;;;;46.43;32.10;;;;;;;13.41;100.00;-18140.13;5075318;28;20224;-67
2022/11/06 05:18:13;;;;;;;52.10;31.93;;;;;;;13.72;100.00;-18147.59;5075713;28;20235;-69
2022/11/06 05:20:43;;;;;;;49.23;31.20;;;;;;;13.53;100.00;-18143.00;5075837;28;20287;-66
2022/11/06 05:23:09;;;;;;;47.83;32.13;;;;;;;13.65;100.00;-18145.91;5075311;28;20201;-66
2022/11/06 05:25:39;;;;;;;47.33;31.97;;;;;;;13.85;100.00;-18150.72;5075226;28;20204;-65
2022/11/06 05:28:08;;;;;;;46.87;30.17;;;;;;;14.09;100.00;-18156.38;5075507;28;20543;-65
2022/11/06 05:30:37;;;;;;;46.17;29.07;;;;;;;14.02;100.00;-18154.81;5075320;28;20188;-67
2022/11/06 05:33:04;;;;;;;44.67;31.23;;;;;;;14.55;100.00;-18167.31;5074294;28;20621;-65
2022/11/06 05:35:33;;;;;;;39.50;25.17;;;;;;;14.73;100.00;-18171.63;5075740;28;20181;-66
2022/11/06 05:38:04;;;;;;;39.70;26.70;;;;;;;15.01;100.00;-18178.38;5075057;28;20248;-65
2022/11/06 05:40:31;;;;;;;46.43;27.90;;;;;;;15.07;100.00;-18179.81;5074863;28;20192;-64
2022/11/06 05:42:58;;;;;;;48.47;31.87;;;;;;;15.29;100.00;-18184.84;5075408;28;20709;-66
2022/11/06 05:45:26;;;;;;;35.23;22.30;;;;;;;15.40;100.00;-18187.50;5074850;28;20204;-65
2022/11/06 05:47:54;;;;;;;33.57;19.73;;;;;;;15.56;100.00;-18191.34;5074731;28;20196;-66
2022/11/06 05:50:21;;;;;;;30.27;19.60;;;;;;;15.89;100.00;-18199.25;5074947;28;20638;-63
2022/11/06 05:52:49;;;;;;;28.27;17.97;;;;;;;16.16;100.00;-18205.50;5074745;28;20189;-66
2022/11/06 05:55:18;;;;;;;28.50;17.87;;;;;;;16.34;100.00;-18209.81;5074574;28;20230;-66
2022/11/06 05:57:45;;;;;;;23.73;17.03;;;;;;;16.55;100.00;-18214.72;5074797;28;20620;-64
2022/11/06 06:00:14;;;;;;;23.83;15.80;;;;;;;16.64;100.00;-18217.00;5074639;28;20188;-66
2022/11/06 06:02:41;;;;;;;26.83;16.07;;;;;;;16.81;100.00;-18221.06;5074677;28;20567;-64
2022/11/06 06:05:10;;;;;;;19.73;13.70;;;;;;;17.01;100.00;-18225.63;5074880;28;20626;-66
2022/11/06 06:07:37;;;;;;;24.27;15.90;;;;;;;17.05;100.00;-18226.59;5074336;28;20747;-66
2022/11/06 06:10:07;;;;;;;15.63;13.17;;;;;;;17.23;100.00;-18231.00;5074257;28;20279;-66
2022/11/06 06:12:35;;;;;;;20.07;13.90;;;;;;;17.19;100.00;-18230.06;5074042;28;20291;-64
2022/11/06 06:15:02;;;;;;;20.27;14.07;;;;;;;17.28;100.00;-18232.09;5073828;28;20187;-64
2022/11/06 06:17:30;;;;;;;22.17;13.80;;;;;;;17.37;100.00;-18234.25;5073977;28;20192;-66
2022/11/06 06:19:57;;;;;;;18.43;13.50;;;;;;;17.37;100.00;-18234.25;5074072;28;20232;-64
2022/11/06 06:22:24;;;;;;;27.47;14.10;;;;;;;17.38;100.00;-18234.50;5073974;28;20185;-64
2022/11/06 06:24:51;;;;;;;23.03;14.60;;;;;;;17.59;100.00;-18239.41;5074469;28;20576;-63
2022/11/06 06:27:19;;;;;;;25.30;14.57;;;;;;;17.59;100.00;-18239.53;5074134;28;20583;-65
2022/11/06 06:29:48;;;;;;;26.80;14.50;;;;;;;17.72;100.00;-18242.63;5074241;28;20652;-68
2022/11/06 06:32:17;;;;;;;26.00;14.40;;;;;;;17.86;100.00;-18245.75;5073763;28;20635;-65
2022/11/06 06:34:44;;;;;;;22.43;14.10;;;;;;;17.97;100.00;-18248.50;5056666;28;20189;-67
2022/11/06 06:37:11;;;;;;;20.93;13.50;;;;;;;18.24;100.00;-16322.34;5074055;28;20619;-65
2022/11/06 06:39:38;;;;;;;24.97;14.70;;;;;;;18.47;100.00;-14072.41;5073613;28;20215;-65
2022/11/06 06:42:05;;;;;;;22.27;13.50;;;;;;;18.48;100.00;-10848.97;5074018;28;20540;-66
2022/11/06 06:44:32;;;;;;;18.83;13.40;;;;;;;18.50;100.00;-8590.63;5073703;28;20257;-64
2022/11/06 06:47:01;;;;;;;23.93;13.93;;;;;;;18.56;100.00;-8913.91;5073999;28;20224;-64
2022/11/06 06:49:28;;;;;;;32.90;14.57;;;;;;;18.89;100.00;-6009.13;5074195;28;20620;-66
2022/11/06 06:51:55;;;;;;;20.40;13.70;;;;;;;19.30;100.00;-3422.38;5073746;28;20208;-66
2022/11/06 06:54:24;;;;;;;14.63;13.10;;;;;;;19.70;100.00;14765.84;5074051;28;20207;-68
2022/11/06 06:56:51;;;;;;;27.87;13.57;;;;;;;19.79;100.00;20636.91;5073560;28;20204;-66
2022/11/06 06:59:18;;;;;;;26.50;13.50;;;;;;;20.10;100.00;35044.72;5073566;28;20575;-67
2022/11/06 07:01:47;;;;;;;27.00;14.00;;;;;;;20.04;100.00;29144.81;5073666;28;20200;-68
2022/11/06 07:04:15;;;;;;;18.63;13.43;;;;;;;20.27;100.00;34399.13;5073677;28;20225;-66
2022/11/06 07:06:42;;;;;;;19.73;13.63;;;;;;;20.51;100.00;47890.88;5073226;28;20189;-67
2022/11/06 07:09:10;;;;;;;20.17;14.23;;;;;;;20.17;100.00;45230.13;5073051;28;20197;-65
2022/11/06 07:11:38;;;;;;;17.10;13.30;;;;;;;20.43;100.00;39661.34;5074181;28;20597;-67
2022/11/06 07:14:05;;;;;;;24.37;13.80;;;;;;;20.55;100.00;39012.31;5073037;28;20260;-64
2022/11/06 07:16:32;;;;;;;14.97;11.97;;;;;;;20.32;100.00;32435.16;5073608;28;20552;-65
2022/11/06 07:19:00;;;;;;;22.33;14.03;;;;;;;20.77;100.00;40013.13;5073822;28;20303;-68
2022/11/06 07:21:29;;;;;;;17.33;12.90;;;;;;;20.84;100.00;44953.47;5072491;28;20193;-67
2022/11/06 07:23:57;;;;;;;27.77;13.80;;;;;;;20.50;100.00;33101.66;5073085;28;20197;-67
2022/11/06 07:26:24;;;;;;;19.53;13.93;;;;;;;20.25;100.00;22287.63;5071891;28;20210;-64
2022/11/06 07:28:51;;;;;;;20.87;13.83;;;;;;;20.33;100.00;34075.19;5073119;28;20192;-67
2022/11/06 07:31:19;;;;;;;18.73;12.57;;;;;;;20.31;100.00;45569.84;5073033;28;20679;-66
2022/11/06 07:33:45;;;;;;;20.70;12.30;;;;;;;20.17;100.00;34721.19;5073040;28;20234;-65
2022/11/06 07:36:14;;;;;;;15.97;12.00;;;;;;;20.38;100.00;42286.75;5072515;28;20184;-68
2022/11/06 07:38:43;;;;;;;18.47;11.97;;;;;;;20.02;100.00;35695.47;5072702;28;20351;-63
2022/11/06 07:41:12;;;;;;;14.87;11.30;;;;;;;19.80;100.00;23248.88;5072666;28;20191;-65
2022/11/06 07:43:41;;;;;;;24.70;13.27;;;;;;;19.46;100.00;9554.03;5072680;28;20231;-68
2022/11/06 07:46:11;;;;;;;20.70;12.20;;;;;;;19.14;100.00;4677.66;5073101;28;20207;-66
2022/11/06 07:48:39;;;;;;;19.73;11.57;;;;;;;18.67;100.00;-4715.59;5072376;28;20201;-64
2022/11/06 07:51:08;;;;;;;15.03;11.10;;;;;;;18.95;100.00;-1157.06;5072382;28;20184;-67
2022/11/06 07:53:36;;;;;;;19.27;11.87;;;;;;;19.21;100.00;1111.66;5072449;28;20216;-67
2022/11/06 07:56:05;;;;;;;18.50;12.17;;;;;;;19.21;100.00;1111.69;5072421;28;20240;-64
2022/11/06 07:58:34;;;;;;;18.20;11.10;;;;;;;19.87;100.00;8911.97;5072198;28;20295;-67
2022/11/06 08:01:01;;;;;;;12.80;11.37;;;;;;;20.31;100.00;22943.66;5072899;28;20196;-65
2022/11/06 08:03:30;;;;;;;17.03;12.07;;;;;;;20.22;100.00;25228.16;5072515;28;20193;-67
2022/11/06 08:05:57;;;;;;;22.77;12.53;;;;;;;20.14;100.00;32097.34;5072740;28;20216;-67
2022/11/06 08:08:25;;;;;;;19.00;11.90;;;;;;;20.06;100.00;28818.59;5072094;28;20227;-68
2022/11/06 08:10:53;;;;;;;18.47;11.67;;;;;;;19.75;100.00;17699.88;5072113;28;20211;-65
2022/11/06 08:13:24;;;;;;;14.37;11.97;;;;;;;20.13;100.00;31768.88;5072436;28;20185;-67
2022/11/06 08:15:52;;;;;;;22.07;12.13;;;;;;;20.06;100.00;30455.25;5071999;28;20571;-67
2022/11/06 08:18:19;;;;;;;14.07;11.33;;;;;;;20.20;100.00;31117.72;5072170;28;20212;-64
2022/11/06 08:20:46;;;;;;;14.27;11.47;;;;;;;20.35;100.00;38342.13;5072031;28;20194;-68
2022/11/06 08:23:14;;;;;;;20.63;11.97;;;;;;;19.36;100.00;12152.78;5072116;28;20200;-66
2022/11/06 08:25:41;;;;;;;18.63;12.83;;;;;;;19.19;100.00;-832.34;5072664;28;20204;-65
2022/11/06 08:28:10;;;;;;;21.13;12.67;;;;;;;19.14;100.00;-508.66;5072180;28;20211;-67
2022/11/06 08:30:38;;;;;;;23.67;12.77;;;;;;;19.56;100.00;5981.91;5072147;28;20279;-65
2022/11/06 08:33:08;;;;;;;14.87;11.93;;;;;;;19.57;100.00;15739.19;5072295;28;20643;-67
2022/11/06 08:35:35;;;;;;;19.70;11.70;;;;;;;19.50;100.00;15411.34;5071855;28;20195;-67
2022/11/06 08:38:04;;;;;;;13.83;10.17;;;;;;;19.33;100.00;7277.19;5071999;28;20238;-68
2022/11/06 08:40:31;;;;;;;23.20;12.80;;;;;;;19.44;100.00;8578.63;5071619;28;20230;-64
2022/11/06 08:43:00;;;;;;;16.60;11.77;;;;;;;19.76;100.00;19983.03;5071882;28;20559;-65
2022/11/06 08:45:27;;;;;;;20.23;11.30;;;;;;;19.41;100.00;14431.78;5071806;28;20689;-66
2022/11/06 08:48:00;;;;;;;22.43;12.47;;;;;;;19.57;100.00;9556.31;5072407;28;20203;-64
2022/11/06 08:50:28;;;;;;;19.37;12.07;;;;;;;19.26;100.00;9224.88;5071957;28;20180;-67
2022/11/06 08:52:56;;;;;;;19.27;12.33;;;;;;;19.14;100.00;6624.66;5071770;28;20201;-63
2022/11/06 08:55:24;;;;;;;15.13;11.17;;;;;;;19.01;100.00;3054.75;5072178;28;20605;-67
2022/11/06 08:57:54;;;;;;;24.50;12.30;;;;;;;19.16;100.00;3704.91;5071935;28;20567;-63
2022/11/06 09:00:22;;;;;;;20.80;12.00;;;;;;;19.23;100.00;1111.81;5072103;28;20670;-66
2022/11/06 09:02:49;;;;;;;24.10;12.23;;;;;;;19.09;100.00;-1480.34;5071496;28;20205;-64
2022/11/06 09:05:18;;;;;;;22.33;12.33;;;;;;;19.50;100.00;1113.81;5072053;28;20185;-67
2022/11/06 09:07:45;;;;;;;24.00;11.70;;;;;;;19.61;100.00;9882.31;5071926;28;20578;-65
2022/11/06 09:10:16;;;;;;;15.60;11.33;;;;;;;19.41;100.00;15083.00;5072008;28;20204;-67
2022/11/06 09:12:44;;;;;;;21.03;11.80;;;;;;;19.57;100.00;13134.47;5071886;28;20667;-68
2022/11/06 09:15:12;;;;;;;18.00;12.13;;;;;;;19.59;100.00;15414.09;5071710;28;20280;-68
2022/11/06 09:17:44;;;;;;;23.50;11.90;;;;;;;19.61;100.00;15414.69;5071716;28;20197;-66
2022/11/06 09:20:11;;;;;;;15.00;10.70;;;;;;;19.85;100.00;18355.47;5071342;28;20228;-63
2022/11/06 09:22:40;;;;;;;21.60;11.70;;;;;;;19.93;100.00;21948.19;5071518;28;20564;-63
2022/11/06 09:25:08;;;;;;;20.23;12.23;;;;;;;19.98;100.00;23583.13;5071419;28;20661;-63
2022/11/06 09:27:42;;;;;;;15.83;11.00;;;;;;;19.66;100.00;22916.13;5071499;28;20211;-64
2022/11/06 09:30:10;;;;;;;19.63;10.83;;;;;;;19.70;100.00;19002.50;5071332;28;20177;-65
2022/11/06 09:32:38;;;;;;;26.20;10.27;;;;;;;18.99;100.00;6297.72;5071653;28;20236;-67
2022/11/06 09:35:06;;;;;;;15.77;10.90;;;;;;;18.83;100.00;4997.88;5071464;28;20209;-64
2022/11/06 09:37:37;;;;;;;12.60;9.80;;;;;;;18.69;100.00;1107.97;5071611;28;20243;-68
2022/11/06 09:40:08;;;;;;;21.97;12.23;;;;;;;18.79;100.00;-5039.09;5071561;28;20220;-67
2022/11/06 09:42:49;;;;;;;18.00;10.80;;;;;;;18.71;100.00;-5685.28;5071012;28;20225;-66
2022/11/06 09:45:21;;;;;;;19.90;11.70;;;;;;;18.44;100.00;-7621.84;5053296;28;20191;-64
2022/11/06 09:47:55;;;;;;;21.63;11.60;;;;;;;18.40;100.00;-6653.00;5071600;28;20193;-65
2022/11/06 09:50:26;;;;;;;12.57;10.93;;;;;;;18.33;100.00;-6329.75;5074987;28;20204;-64
2022/11/06 09:52:58;;;;;;;22.70;12.10;;;;;;;18.20;100.00;-6974.75;5074640;28;20230;-67
2022/11/06 09:55:31;;;;;;;23.37;12.90;;;;;;;18.31;100.00;-4068.66;5074733;28;20196;-67
2022/11/06 09:58:02;;;;;;;16.67;11.33;;;;;;;18.41;100.00;-3422.38;5075138;28;20200;-65
2022/11/06 10:00:30;;;;;;;14.30;11.70;;;;;;;18.35;100.00;-3099.19;5074492;28;20209;-66
2022/11/06 10:03:03;;;;;;;18.87;11.77;;;;;;;18.59;100.00;-2128.88;5074631;28;20204;-65
2022/11/06 10:05:32;;;;;;;20.40;12.13;;;;;;;18.66;100.00;460.19;5074791;28;20189;-65
2022/11/06 10:08:03;;;;;;;20.53;11.93;;;;;;;18.67;100.00;2727.22;5074623;28;20185;-66
2022/11/06 10:10:39;;;;;;;21.80;11.73;;;;;;;18.55;100.00;-4068.94;5074767;28;20275;-66
2022/11/06 10:13:21;;;;;;;15.10;11.07;;;;;;;18.37;100.00;-7298.53;5074614;28;20284;-65
2022/11/06 10:15:54;;;;;;;14.73;12.10;;;;;;;18.27;100.00;-6975.16;5074488;28;20624;-65
2022/11/06 10:18:32;;;;;;;22.20;13.23;;;;;;;18.28;100.00;-10201.69;5074301;28;20181;-67
2022/11/06 10:21:06;;;;;;;24.50;12.00;;;;;;;18.19;100.00;-7297.44;5074388;28;20228;-65
2022/11/06 10:23:43;;;;;;;26.70;12.03;;;;;;;18.16;100.00;-6974.50;5074197;28;20180;-64
2022/11/06 10:26:15;;;;;;;22.70;12.63;;;;;;;18.37;100.00;-6975.72;5074580;28;20246;-66
2022/11/06 10:29:19;;;;;;;15.73;11.90;;;;;;;18.19;100.00;-8265.47;5074141;28;20201;-64
2022/11/06 10:31:55;;;;;;;24.23;12.90;;;;;;;18.21;100.00;-8265.63;5064681;28;20240;-68
2022/11/06 10:34:28;;;;;;;22.07;12.80;;;;;;;18.37;100.00;-6007.00;5074269;28;20189;-67
2022/11/06 10:37:01;;;;;;;16.47;12.07;;;;;;;18.36;100.00;-4068.72;5073974;28;20279;-67
2022/11/06 10:39:31;;;;;;;17.23;12.07;;;;;;;18.18;100.00;-6329.06;5074059;28;20695;-67
2022/11/06 10:42:06;;;;;;;22.57;12.37;;;;;;;18.03;100.00;-8586.78;5074458;28;20197;-66
2022/11/06 10:44:38;;;;;;;13.77;11.90;;;;;;;18.15;100.00;-7297.19;5073720;28;20258;-65
2022/11/06 10:47:16;;;;;;;19.63;12.50;;;;;;;18.15;100.00;-6974.47;5074058;28;20280;-64
2022/11/06 10:49:48;;;;;;;24.23;12.30;;;;;;;17.86;100.00;-8585.31;5073785;28;20641;-66
2022/11/06 10:52:49;;;;;;;23.07;12.23;;;;;;;18.27;100.00;-6329.47;5065907;28;20185;-66
2022/11/06 10:55:50;;;;;;;17.13;11.87;;;;;;;18.18;100.00;-6006.22;5073933;28;20208;-65
2022/11/06 10:58:22;;;;;;;14.90;10.87;;;;;;;17.88;100.00;-10197.34;5072770;28;20211;-66
2022/11/06 11:00:51;;;;;;;17.13;12.50;;;;;;;18.03;100.00;-12132.50;5073387;28;20676;-65
2022/11/06 11:03:24;;;;;;;17.50;11.43;;;;;;;17.92;100.00;-13097.22;5073749;28;20622;-67
2022/11/06 11:05:54;;;;;;;23.53;12.30;;;;;;;17.71;100.00;-14059.59;5073657;28;20537;-66
2022/11/06 11:08:40;;;;;;;28.17;13.27;;;;;;;18.11;100.00;-12778.00;5073698;28;20212;-65
2022/11/06 11:11:21;;;;;;;19.40;12.57;;;;;;;17.98;100.00;-8586.38;5073345;28;20180;-66
2022/11/06 11:14:11;;;;;;;15.97;11.77;;;;;;;18.10;100.00;-7296.84;5073269;28;20673;-66
2022/11/06 11:16:40;;;;;;;28.70;12.57;;;;;;;18.16;100.00;-7619.94;5073294;28;20205;-65
2022/11/06 11:19:25;;;;;;;21.50;12.47;;;;;;;18.17;100.00;-8265.34;5073302;28;20646;-69
2022/11/06 11:21:54;;;;;;;19.50;11.57;;;;;;;18.03;100.00;-6973.75;5073401;28;20624;-67
2022/11/06 11:24:21;;;;;;;19.37;11.03;;;;;;;18.11;100.00;-7619.59;5055737;28;20212;-65
2022/11/06 11:26:51;;;;;;;14.77;11.90;;;;;;;18.14;100.00;-7619.78;5073010;28;20200;-65
2022/11/06 11:29:24;;;;;;;19.40;13.00;;;;;;;18.17;100.00;-6006.16;5072974;28;20195;-67
2022/11/06 11:31:54;;;;;;;22.40;12.53;;;;;;;18.11;100.00;-6974.22;5073655;28;20323;-64